PWSweather.com
Personal Weather Stations
Station Observations
KNVELKO7
Elko, NV 89801

Elko, NV 89801

Lat: 40.963233, Lon: -115.592836

Elevation: 5230

Station Type: WS-2812

Latest ConditionsUpdated 1:41:31 PM PDT Tuesday, Aug 30, 2016
Currently Today's Max Today's Min Today's Average
Temperature 94.0°F34.4°C 96.7°F35.9°C 46.3°F7.9°C 65.7°F18.7°C
Dew Point 32.8°F0.4°C 40.4°F4.7°C 17.6°F-8.0°C 26.8°F-2.9°C
Winds 11.0 mph SSW17.7 kmh SSW 11.5 mph SW18.5 kmh SW - 3.3 mph 5.3 kmh
Wind Gusts 17.2 mph27.7 kmh 17.2 mph27.7 kmh - -
Humidity 12% 36% 11% 25%
Pressure 30.12 in1020.0 mb 30.19 in1022.4 mb 30.12 in1020.0 mb -
Hour Temp Dew Point Humidity Winds Wind Gusts Pressure Precip Precip Rate Daily Precip Total
01:41 PM 94.0°F34.4°C 32.8°F0.4°C 12% 11.0 mph SSW17.7 kmh SSW 17.2 mph27.7 kmh 30.12 in1020.0 mb 0.00 in0.0 mm 0.00 in0.0 mm 0.00 in0.0 mm
01:36 PM 94.1°F34.5°C 32.9°F0.5°C 12% 11.5 mph SW18.5 kmh SW 15.7 mph25.3 kmh 30.12 in1020.0 mb 0.00 in0.0 mm 0.00 in0.0 mm 0.00 in0.0 mm
01:31 PM 93.6°F34.2°C 32.4°F0.2°C 12% 7.8 mph SW12.6 kmh SW 15.7 mph25.3 kmh 30.12 in1020.0 mb 0.00 in0.0 mm 0.00 in0.0 mm 0.00 in0.0 mm
01:26 PM 94.5°F34.7°C 31.4°F-0.3°C 11% 10.1 mph WSW16.3 kmh WSW 13.4 mph21.6 kmh 30.12 in1020.0 mb 0.00 in0.0 mm 0.00 in0.0 mm 0.00 in0.0 mm
01:21 PM 95.0°F35.0°C 33.6°F0.9°C 12% 10.3 mph SW16.6 kmh SW 11.4 mph18.3 kmh 30.12 in1020.0 mb 0.00 in0.0 mm 0.00 in0.0 mm 0.00 in0.0 mm
01:16 PM 94.5°F34.7°C 33.1°F0.6°C 12% 5.3 mph SW8.5 kmh SW 9.8 mph15.8 kmh 30.12 in1020.0 mb 0.00 in0.0 mm 0.00 in0.0 mm 0.00 in0.0 mm
01:11 PM 95.0°F35.0°C 31.9°F-0.1°C 11% 7.3 mph SW11.7 kmh SW 7.6 mph12.2 kmh 30.12 in1020.0 mb 0.00 in0.0 mm 0.00 in0.0 mm 0.00 in0.0 mm
01:06 PM 95.9°F35.5°C 32.5°F0.3°C 11% 5.6 mph NW9.0 kmh NW 8.7 mph14.0 kmh 30.12 in1020.0 mb 0.00 in0.0 mm 0.00 in0.0 mm 0.00 in0.0 mm
01:01 PM 96.5°F35.8°C 34.7°F1.5°C 12% 3.6 mph NE5.8 kmh NE 8.7 mph14.0 kmh 30.12 in1020.0 mb 0.00 in0.0 mm 0.00 in0.0 mm 0.00 in0.0 mm
12:55 PM 96.7°F35.9°C 34.8°F1.6°C 12% 5.9 mph WSW9.5 kmh WSW 8.7 mph14.0 kmh 30.12 in1020.0 mb 0.00 in0.0 mm 0.00 in0.0 mm 0.00 in0.0 mm
12:50 PM 96.7°F35.9°C 34.8°F1.6°C 12% 5.6 mph WSW9.0 kmh WSW 7.6 mph12.2 kmh 30.12 in1020.0 mb 0.00 in0.0 mm 0.00 in0.0 mm 0.00 in0.0 mm
12:45 PM 96.5°F35.8°C 40.1°F4.5°C 15% 4.8 mph SW7.7 kmh SW 7.6 mph12.2 kmh 30.13 in1020.3 mb 0.00 in0.0 mm 0.00 in0.0 mm 0.00 in0.0 mm
12:40 PM 95.4°F35.2°C 35.7°F2.1°C 13% 2.2 mph SW3.5 kmh SW 7.6 mph12.2 kmh 30.13 in1020.3 mb 0.00 in0.0 mm 0.00 in0.0 mm 0.00 in0.0 mm
12:35 PM 95.0°F35.0°C 35.4°F1.9°C 13% 1.1 mph NW1.8 kmh NW 6.7 mph10.8 kmh 30.13 in1020.3 mb 0.00 in0.0 mm 0.00 in0.0 mm 0.00 in0.0 mm
12:31 PM 95.0°F35.0°C 38.9°F3.8°C 15% 4.4 mph E7.1 kmh E 6.7 mph10.8 kmh 30.13 in1020.3 mb 0.00 in0.0 mm 0.00 in0.0 mm 0.00 in0.0 mm
12:26 PM 95.0°F35.0°C 35.4°F1.9°C 13% 4.3 mph WSW6.9 kmh WSW 4.7 mph7.6 kmh 30.14 in1020.7 mb 0.00 in0.0 mm 0.00 in0.0 mm 0.00 in0.0 mm
12:21 PM 94.7°F34.8°C 40.3°F4.6°C 16% 4.3 mph S6.9 kmh S 4.7 mph7.6 kmh 30.14 in1020.7 mb 0.00 in0.0 mm 0.00 in0.0 mm 0.00 in0.0 mm
12:16 PM 94.1°F34.5°C 38.2°F3.4°C 15% 1.0 mph NE1.6 kmh NE 6.3 mph10.1 kmh 30.14 in1020.7 mb 0.00 in0.0 mm 0.00 in0.0 mm 0.00 in0.0 mm
12:11 PM 94.0°F34.4°C 34.5°F1.4°C 13% 4.1 mph NE6.6 kmh NE 6.3 mph10.1 kmh 30.15 in1021.0 mb 0.00 in0.0 mm 0.00 in0.0 mm 0.00 in0.0 mm
12:06 PM 94.0°F34.4°C 39.8°F4.3°C 16% 1.5 mph S2.4 kmh S 6.3 mph10.1 kmh 30.15 in1021.0 mb 0.00 in0.0 mm 0.00 in0.0 mm 0.00 in0.0 mm
12:01 PM 92.9°F33.8°C 37.2°F2.9°C 15% 2.3 mph SSW3.7 kmh SSW 5.8 mph9.3 kmh 30.15 in1021.0 mb 0.00 in0.0 mm 0.00 in0.0 mm 0.00 in0.0 mm
11:55 AM 92.2°F33.4°C 36.6°F2.6°C 15% 4.8 mph SE7.7 kmh SE 5.8 mph9.3 kmh 30.15 in1021.0 mb 0.00 in0.0 mm 0.00 in0.0 mm 0.00 in0.0 mm
11:50 AM 92.5°F33.6°C 40.4°F4.7°C 17% 5.1 mph E8.2 kmh E 6.3 mph10.1 kmh 30.15 in1021.0 mb 0.00 in0.0 mm 0.00 in0.0 mm 0.00 in0.0 mm
11:45 AM 92.0°F33.3°C 40.0°F4.4°C 17% 4.9 mph ESE7.9 kmh ESE 6.7 mph10.8 kmh 30.15 in1021.0 mb 0.00 in0.0 mm 0.00 in0.0 mm 0.00 in0.0 mm
11:40 AM 91.4°F33.0°C 39.6°F4.2°C 17% 5.3 mph ESE8.5 kmh ESE 6.7 mph10.8 kmh 30.16 in1021.3 mb 0.00 in0.0 mm 0.00 in0.0 mm 0.00 in0.0 mm
11:35 AM 90.7°F32.6°C 37.3°F2.9°C 16% 2.2 mph E3.5 kmh E 6.5 mph10.5 kmh 30.16 in1021.3 mb 0.00 in0.0 mm 0.00 in0.0 mm 0.00 in0.0 mm
11:30 AM 90.2°F32.3°C 40.3°F4.6°C 18% 3.0 mph SE4.8 kmh SE 6.5 mph10.5 kmh 30.16 in1021.3 mb 0.00 in0.0 mm 0.00 in0.0 mm 0.00 in0.0 mm
11:25 AM 89.6°F32.0°C 39.9°F4.4°C 18% 3.3 mph SE5.3 kmh SE 6.7 mph10.8 kmh 30.16 in1021.3 mb 0.00 in0.0 mm 0.00 in0.0 mm 0.00 in0.0 mm
11:20 AM 88.9°F31.6°C 37.6°F3.1°C 17% 2.1 mph SSE3.4 kmh SSE 6.7 mph10.8 kmh 30.16 in1021.3 mb 0.00 in0.0 mm 0.00 in0.0 mm 0.00 in0.0 mm
11:15 AM 87.8°F31.0°C 38.5°F3.6°C 18% 2.7 mph SW4.3 kmh SW 3.4 mph5.5 kmh 30.16 in1021.3 mb 0.00 in0.0 mm 0.00 in0.0 mm 0.00 in0.0 mm
11:10 AM 86.8°F30.4°C 34.1°F1.2°C 16% 1.5 mph W2.4 kmh W 4.0 mph6.4 kmh 30.17 in1021.7 mb 0.00 in0.0 mm 0.00 in0.0 mm 0.00 in0.0 mm
11:05 AM 86.8°F30.4°C 35.8°F2.1°C 17% 2.3 mph N3.7 kmh N 4.0 mph6.4 kmh 30.17 in1021.7 mb 0.00 in0.0 mm 0.00 in0.0 mm 0.00 in0.0 mm
11:00 AM 86.2°F30.1°C 37.1°F2.8°C 18% 2.2 mph ESE3.5 kmh ESE 5.4 mph8.7 kmh 30.17 in1021.7 mb 0.00 in0.0 mm 0.00 in0.0 mm 0.00 in0.0 mm
10:55 AM 85.3°F29.6°C 36.4°F2.4°C 18% 2.0 mph NNE3.2 kmh NNE 5.4 mph8.7 kmh 30.17 in1021.7 mb 0.00 in0.0 mm 0.00 in0.0 mm 0.00 in0.0 mm
10:50 AM 84.6°F29.2°C 37.4°F3.0°C 19% 2.6 mph E4.2 kmh E 2.7 mph4.3 kmh 30.17 in1021.7 mb 0.00 in0.0 mm 0.00 in0.0 mm 0.00 in0.0 mm
10:45 AM 83.7°F28.7°C 38.4°F3.6°C 20% 0.4 mph SSW0.6 kmh SSW 3.4 mph5.5 kmh 30.17 in1021.7 mb 0.00 in0.0 mm 0.00 in0.0 mm 0.00 in0.0 mm
10:40 AM 82.6°F28.1°C 37.6°F3.1°C 20% 1.5 mph ESE2.4 kmh ESE 3.4 mph5.5 kmh 30.17 in1021.7 mb 0.00 in0.0 mm 0.00 in0.0 mm 0.00 in0.0 mm
10:35 AM 81.5°F27.5°C 35.0°F1.7°C 19% 1.6 mph N2.6 kmh N 3.4 mph5.5 kmh 30.18 in1022.0 mb 0.00 in0.0 mm 0.00 in0.0 mm 0.00 in0.0 mm
10:30 AM 80.6°F27.0°C 34.3°F1.3°C 19% 1.7 mph ENE2.7 kmh ENE 4.7 mph7.6 kmh 30.18 in1022.0 mb 0.00 in0.0 mm 0.00 in0.0 mm 0.00 in0.0 mm
10:25 AM 79.7°F26.5°C 33.5°F0.8°C 19% 2.8 mph 4.5 kmh 4.7 mph7.6 kmh 30.18 in1022.0 mb 0.00 in0.0 mm 0.00 in0.0 mm 0.00 in0.0 mm
10:20 AM 79.2°F26.2°C 35.7°F2.1°C 21% 1.8 mph SE2.9 kmh SE 4.0 mph6.4 kmh 30.18 in1022.0 mb 0.00 in0.0 mm 0.00 in0.0 mm 0.00 in0.0 mm
10:15 AM 78.3°F25.7°C 35.0°F1.7°C 21% 2.7 mph E4.3 kmh E 4.0 mph6.4 kmh 30.17 in1021.7 mb 0.00 in0.0 mm 0.00 in0.0 mm 0.00 in0.0 mm
10:10 AM 77.8°F25.4°C 35.7°F2.1°C 22% 1.3 mph ENE2.1 kmh ENE 3.8 mph6.1 kmh 30.18 in1022.0 mb 0.00 in0.0 mm 0.00 in0.0 mm 0.00 in0.0 mm
10:05 AM 76.9°F24.9°C 33.9°F1.1°C 21% 1.7 mph E2.7 kmh E 4.9 mph7.9 kmh 30.18 in1022.0 mb 0.00 in0.0 mm 0.00 in0.0 mm 0.00 in0.0 mm
10:00 AM 76.1°F24.5°C 32.2°F0.1°C 20% 1.1 mph NE1.8 kmh NE 4.9 mph7.9 kmh 30.17 in1021.7 mb 0.00 in0.0 mm 0.00 in0.0 mm 0.00 in0.0 mm
09:55 AM 76.1°F24.5°C 33.3°F0.7°C 21% 4.3 mph N6.9 kmh N 4.7 mph7.6 kmh 30.18 in1022.0 mb 0.00 in0.0 mm 0.00 in0.0 mm 0.00 in0.0 mm
09:50 AM 76.1°F24.5°C 35.4°F1.9°C 23% 2.5 mph E4.0 kmh E 5.4 mph8.7 kmh 30.18 in1022.0 mb 0.00 in0.0 mm 0.00 in0.0 mm 0.00 in0.0 mm
09:45 AM 75.6°F24.2°C 35.9°F2.2°C 24% 4.0 mph E6.4 kmh E 5.4 mph8.7 kmh 30.18 in1022.0 mb 0.00 in0.0 mm 0.00 in0.0 mm 0.00 in0.0 mm
09:40 AM 74.7°F23.7°C 36.2°F2.3°C 25% 3.7 mph E6.0 kmh E 4.7 mph7.6 kmh 30.18 in1022.0 mb 0.00 in0.0 mm 0.00 in0.0 mm 0.00 in0.0 mm
09:35 AM 73.8°F23.2°C 35.4°F1.9°C 25% 3.1 mph E5.0 kmh E 4.7 mph7.6 kmh 30.18 in1022.0 mb 0.00 in0.0 mm 0.00 in0.0 mm 0.00 in0.0 mm
09:30 AM 73.4°F23.0°C 35.1°F1.7°C 25% 4.4 mph E7.1 kmh E 4.9 mph7.9 kmh 30.18 in1022.0 mb 0.00 in0.0 mm 0.00 in0.0 mm 0.00 in0.0 mm
09:25 AM 73.3°F22.9°C 34.9°F1.6°C 25% 3.6 mph ESE5.8 kmh ESE 4.9 mph7.9 kmh 30.18 in1022.0 mb 0.00 in0.0 mm 0.00 in0.0 mm 0.00 in0.0 mm
09:20 AM 72.7°F22.6°C 37.5°F3.1°C 28% 3.3 mph SE5.3 kmh SE 5.4 mph8.7 kmh 30.18 in1022.0 mb 0.00 in0.0 mm 0.00 in0.0 mm 0.00 in0.0 mm
09:15 AM 71.5°F21.9°C 36.5°F2.5°C 28% 3.8 mph E6.1 kmh E 5.4 mph8.7 kmh 30.19 in1022.4 mb 0.00 in0.0 mm 0.00 in0.0 mm 0.00 in0.0 mm
09:10 AM 70.2°F21.2°C 35.4°F1.9°C 28% 3.0 mph E4.8 kmh E 4.9 mph7.9 kmh 30.19 in1022.4 mb 0.00 in0.0 mm 0.00 in0.0 mm 0.00 in0.0 mm
09:05 AM 69.3°F20.7°C 35.6°F2.0°C 29% 3.3 mph E5.3 kmh E 4.9 mph7.9 kmh 30.19 in1022.4 mb 0.00 in0.0 mm 0.00 in0.0 mm 0.00 in0.0 mm
09:00 AM 68.0°F20.0°C 34.5°F1.4°C 29% 3.4 mph E5.5 kmh E 4.5 mph7.2 kmh 30.19 in1022.4 mb 0.00 in0.0 mm 0.00 in0.0 mm 0.00 in0.0 mm
08:54 AM 66.8°F19.3°C 34.5°F1.4°C 30% 2.0 mph E3.2 kmh E 4.7 mph7.6 kmh 30.19 in1022.4 mb 0.00 in0.0 mm 0.00 in0.0 mm 0.00 in0.0 mm
08:49 AM 65.5°F18.6°C 33.4°F0.8°C 30% 4.1 mph ENE6.6 kmh ENE 4.7 mph7.6 kmh 30.19 in1022.4 mb 0.00 in0.0 mm 0.00 in0.0 mm 0.00 in0.0 mm
08:44 AM 64.4°F18.0°C 33.8°F1.0°C 32% 3.8 mph SE6.1 kmh SE 4.7 mph7.6 kmh 30.19 in1022.4 mb 0.00 in0.0 mm 0.00 in0.0 mm 0.00 in0.0 mm
08:39 AM 63.4°F17.4°C 32.9°F0.5°C 32% 3.0 mph E4.8 kmh E 4.0 mph6.4 kmh 30.19 in1022.4 mb 0.00 in0.0 mm 0.00 in0.0 mm 0.00 in0.0 mm
08:35 AM 62.5°F16.9°C 32.8°F0.4°C 33% 3.9 mph ESE6.3 kmh ESE 4.0 mph6.4 kmh 30.19 in1022.4 mb 0.00 in0.0 mm 0.00 in0.0 mm 0.00 in0.0 mm
08:30 AM 61.6°F16.4°C 32.0°F0.0°C 33% 3.6 mph ESE5.8 kmh ESE 3.8 mph6.1 kmh 30.19 in1022.4 mb 0.00 in0.0 mm 0.00 in0.0 mm 0.00 in0.0 mm
08:25 AM 60.7°F15.9°C 31.9°F-0.1°C 34% 2.8 mph ESE4.5 kmh ESE 3.8 mph6.1 kmh 30.19 in1022.4 mb 0.00 in0.0 mm 0.00 in0.0 mm 0.00 in0.0 mm
08:20 AM 59.8°F15.4°C 31.2°F-0.4°C 34% 2.3 mph SE3.7 kmh SE 3.4 mph5.5 kmh 30.19 in1022.4 mb 0.00 in0.0 mm 0.00 in0.0 mm 0.00 in0.0 mm
08:15 AM 58.9°F14.9°C 30.3°F-0.9°C 34% 2.8 mph SSE4.5 kmh SSE 3.4 mph5.5 kmh 30.19 in1022.4 mb 0.00 in0.0 mm 0.00 in0.0 mm 0.00 in0.0 mm
08:12 AM 54.2°F12.3°C 25.6°F-3.6°C 33% 1.5 mph NW2.4 kmh NW 3.1 mph5.0 kmh 30.19 in1022.4 mb 0.00 in0.0 mm 0.00 in0.0 mm 0.00 in0.0 mm
08:11 AM 49.0°F9.4°C 21.6°F-5.8°C 34% 1.8 mph 2.9 kmh 4.0 mph6.4 kmh 30.19 in1022.4 mb 0.00 in0.0 mm 0.00 in0.0 mm 0.00 in0.0 mm
08:10 AM 47.0°F8.3°C 20.5°F-6.4°C 35% 1.8 mph NE2.9 kmh NE 3.4 mph5.5 kmh 30.19 in1022.4 mb 0.00 in0.0 mm 0.00 in0.0 mm 0.00 in0.0 mm
08:09 AM 47.2°F8.4°C 19.4°F-7.0°C 33% 1.7 mph NNE2.7 kmh NNE 4.5 mph7.2 kmh 30.18 in1022.0 mb 0.00 in0.0 mm 0.00 in0.0 mm 0.00 in0.0 mm
08:08 AM 47.2°F8.4°C 18.7°F-7.4°C 32% 4.7 mph 7.6 kmh 4.7 mph7.6 kmh 30.18 in1022.0 mb 0.00 in0.0 mm 0.00 in0.0 mm 0.00 in0.0 mm
08:07 AM 49.9°F9.9°C 20.4°F-6.4°C 31% 1.7 mph N2.7 kmh N 1.8 mph2.9 kmh 30.18 in1022.0 mb 0.00 in0.0 mm 0.00 in0.0 mm 0.00 in0.0 mm
08:06 AM 50.6°F10.3°C 21.0°F-6.1°C 31% 0.9 mph SE1.4 kmh SE 2.5 mph4.0 kmh 30.18 in1022.0 mb 0.00 in0.0 mm 0.00 in0.0 mm 0.00 in0.0 mm
08:04 AM 56.9°F13.8°C 27.9°F-2.3°C 33% 1.5 mph ENE2.4 kmh ENE 2.2 mph3.5 kmh 30.19 in1022.4 mb 0.00 in0.0 mm 0.00 in0.0 mm 0.00 in0.0 mm
07:58 AM 56.2°F13.4°C 26.6°F-3.0°C 32% 1.8 mph 2.9 kmh 2.2 mph3.5 kmh 30.19 in1022.4 mb 0.00 in0.0 mm 0.00 in0.0 mm 0.00 in0.0 mm
04:58 AM 50.8°F10.4°C 21.2°F-6.0°C 31% Calm Calm 2.5 mph4.0 kmh 30.18 in1022.0 mb 0.00 in0.0 mm 0.00 in0.0 mm 0.00 in0.0 mm
04:53 AM 51.3°F10.7°C 21.6°F-5.8°C 31% 1.1 mph E1.8 kmh E 4.0 mph6.4 kmh 30.18 in1022.0 mb 0.00 in0.0 mm 0.00 in0.0 mm 0.00 in0.0 mm
04:48 AM 51.7°F10.9°C 21.2°F-6.0°C 30% 2.7 mph E4.3 kmh E 4.0 mph6.4 kmh 30.17 in1021.7 mb 0.00 in0.0 mm 0.00 in0.0 mm 0.00 in0.0 mm
04:43 AM 52.0°F11.1°C 22.2°F-5.4°C 31% 1.3 mph NE2.1 kmh NE 7.6 mph12.2 kmh 30.17 in1021.7 mb 0.00 in0.0 mm 0.00 in0.0 mm 0.00 in0.0 mm
04:38 AM 52.2°F11.2°C 22.4°F-5.3°C 31% 5.6 mph NE9.0 kmh NE 7.6 mph12.2 kmh 30.17 in1021.7 mb 0.00 in0.0 mm 0.00 in0.0 mm 0.00 in0.0 mm
04:33 AM 52.2°F11.2°C 22.4°F-5.3°C 31% 6.5 mph NE10.5 kmh NE 8.5 mph13.7 kmh 30.17 in1021.7 mb 0.00 in0.0 mm 0.00 in0.0 mm 0.00 in0.0 mm
04:28 AM 52.2°F11.2°C 22.4°F-5.3°C 31% 6.3 mph NE10.1 kmh NE 8.5 mph13.7 kmh 30.17 in1021.7 mb 0.00 in0.0 mm 0.00 in0.0 mm 0.00 in0.0 mm
04:23 AM 52.6°F11.4°C 22.1°F-5.5°C 30% 7.3 mph NE11.7 kmh NE 7.6 mph12.2 kmh 30.17 in1021.7 mb 0.00 in0.0 mm 0.00 in0.0 mm 0.00 in0.0 mm
04:18 AM 52.7°F11.5°C 22.2°F-5.4°C 30% 6.6 mph ENE10.6 kmh ENE 8.5 mph13.7 kmh 30.17 in1021.7 mb 0.00 in0.0 mm 0.00 in0.0 mm 0.00 in0.0 mm
04:13 AM 52.9°F11.6°C 22.4°F-5.3°C 30% 6.9 mph ENE11.1 kmh ENE 8.5 mph13.7 kmh 30.17 in1021.7 mb 0.00 in0.0 mm 0.00 in0.0 mm 0.00 in0.0 mm
04:08 AM 53.6°F12.0°C 22.1°F-5.5°C 29% 8.4 mph ENE13.5 kmh ENE 8.5 mph13.7 kmh 30.17 in1021.7 mb 0.00 in0.0 mm 0.00 in0.0 mm 0.00 in0.0 mm
04:03 AM 54.4°F12.4°C 22.7°F-5.2°C 29% 5.4 mph E8.7 kmh E 7.6 mph12.2 kmh 30.17 in1021.7 mb 0.00 in0.0 mm 0.00 in0.0 mm 0.00 in0.0 mm
03:58 AM 54.4°F12.4°C 22.7°F-5.2°C 29% 5.1 mph ENE8.2 kmh ENE 7.6 mph12.2 kmh 30.17 in1021.7 mb 0.00 in0.0 mm 0.00 in0.0 mm 0.00 in0.0 mm
03:53 AM 54.0°F12.2°C 22.4°F-5.3°C 29% 6.4 mph E10.3 kmh E 7.2 mph11.6 kmh 30.18 in1022.0 mb 0.00 in0.0 mm 0.00 in0.0 mm 0.00 in0.0 mm
03:48 AM 53.8°F12.1°C 22.2°F-5.4°C 29% 6.9 mph E11.1 kmh E 8.9 mph14.3 kmh 30.18 in1022.0 mb 0.00 in0.0 mm 0.00 in0.0 mm 0.00 in0.0 mm
03:43 AM 53.1°F11.7°C 21.6°F-5.8°C 29% 6.9 mph ENE11.1 kmh ENE 9.2 mph14.8 kmh 30.17 in1021.7 mb 0.00 in0.0 mm 0.00 in0.0 mm 0.00 in0.0 mm
03:38 AM 52.6°F11.4°C 20.2°F-6.6°C 28% 8.2 mph ENE13.2 kmh ENE 9.2 mph14.8 kmh 30.17 in1021.7 mb 0.00 in0.0 mm 0.00 in0.0 mm 0.00 in0.0 mm
03:33 AM 52.7°F11.5°C 19.4°F-7.0°C 27% 4.1 mph NNE6.6 kmh NNE 4.5 mph7.2 kmh 30.17 in1021.7 mb 0.00 in0.0 mm 0.00 in0.0 mm 0.00 in0.0 mm
03:28 AM 52.9°F11.6°C 19.5°F-6.9°C 27% 0.4 mph ENE0.6 kmh ENE 4.7 mph7.6 kmh 30.17 in1021.7 mb 0.00 in0.0 mm 0.00 in0.0 mm 0.00 in0.0 mm
03:23 AM 53.1°F11.7°C 19.7°F-6.8°C 27% 2.8 mph E4.5 kmh E 4.9 mph7.9 kmh 30.17 in1021.7 mb 0.00 in0.0 mm 0.00 in0.0 mm 0.00 in0.0 mm
03:18 AM 52.9°F11.6°C 20.5°F-6.4°C 28% 4.2 mph E6.8 kmh E 4.9 mph7.9 kmh 30.17 in1021.7 mb 0.00 in0.0 mm 0.00 in0.0 mm 0.00 in0.0 mm
03:13 AM 52.9°F11.6°C 19.5°F-6.9°C 27% 2.8 mph ESE4.5 kmh ESE 3.4 mph5.5 kmh 30.18 in1022.0 mb 0.00 in0.0 mm 0.00 in0.0 mm 0.00 in0.0 mm
03:08 AM 53.1°F11.7°C 19.7°F-6.8°C 27% 2.5 mph ESE4.0 kmh ESE 3.4 mph5.5 kmh 30.18 in1022.0 mb 0.00 in0.0 mm 0.00 in0.0 mm 0.00 in0.0 mm
03:03 AM 53.3°F11.8°C 19.9°F-6.7°C 27% 1.5 mph ESE2.4 kmh ESE 3.4 mph5.5 kmh 30.18 in1022.0 mb 0.00 in0.0 mm 0.00 in0.0 mm 0.00 in0.0 mm
02:57 AM 53.5°F11.9°C 20.0°F-6.7°C 27% 2.3 mph E3.7 kmh E 3.6 mph5.8 kmh 30.18 in1022.0 mb 0.00 in0.0 mm 0.00 in0.0 mm 0.00 in0.0 mm
02:52 AM 53.5°F11.9°C 18.1°F-7.7°C 25% 2.6 mph ESE4.2 kmh ESE 4.0 mph6.4 kmh 30.18 in1022.0 mb 0.00 in0.0 mm 0.00 in0.0 mm 0.00 in0.0 mm
02:47 AM 53.6°F12.0°C 18.3°F-7.6°C 25% 3.8 mph E6.1 kmh E 4.0 mph6.4 kmh 30.18 in1022.0 mb 0.00 in0.0 mm 0.00 in0.0 mm 0.00 in0.0 mm
02:42 AM 54.0°F12.2°C 17.7°F-7.9°C 24% 3.6 mph SE5.8 kmh SE 3.6 mph5.8 kmh 30.18 in1022.0 mb 0.00 in0.0 mm 0.00 in0.0 mm 0.00 in0.0 mm
02:37 AM 54.0°F12.2°C 18.5°F-7.5°C 25% 1.2 mph E1.9 kmh E 4.0 mph6.4 kmh 30.18 in1022.0 mb 0.00 in0.0 mm 0.00 in0.0 mm 0.00 in0.0 mm
02:33 AM 54.0°F12.2°C 18.5°F-7.5°C 25% 2.9 mph E4.7 kmh E 4.0 mph6.4 kmh 30.18 in1022.0 mb 0.00 in0.0 mm 0.00 in0.0 mm 0.00 in0.0 mm
02:28 AM 54.4°F12.4°C 17.9°F-7.8°C 24% 2.8 mph ESE4.5 kmh ESE 3.4 mph5.5 kmh 30.18 in1022.0 mb 0.00 in0.0 mm 0.00 in0.0 mm 0.00 in0.0 mm
02:23 AM 54.7°F12.6°C 18.3°F-7.6°C 24% 1.8 mph SE2.9 kmh SE 2.5 mph4.0 kmh 30.18 in1022.0 mb 0.00 in0.0 mm 0.00 in0.0 mm 0.00 in0.0 mm
02:18 AM 55.1°F12.8°C 17.7°F-7.9°C 23% 1.8 mph WSW2.9 kmh WSW 3.4 mph5.5 kmh 30.18 in1022.0 mb 0.00 in0.0 mm 0.00 in0.0 mm 0.00 in0.0 mm
02:13 AM 55.4°F13.0°C 17.9°F-7.8°C 23% 2.5 mph 4.0 kmh 3.4 mph5.5 kmh 30.18 in1022.0 mb 0.00 in0.0 mm 0.00 in0.0 mm 0.00 in0.0 mm
02:08 AM 56.2°F13.4°C 17.6°F-8.0°C 22% 2.6 mph 4.2 kmh 2.7 mph4.3 kmh 30.18 in1022.0 mb 0.00 in0.0 mm 0.00 in0.0 mm 0.00 in0.0 mm
02:03 AM 56.7°F13.7°C 19.0°F-7.2°C 23% 1.8 mph E2.9 kmh E 3.1 mph5.0 kmh 30.18 in1022.0 mb 0.00 in0.0 mm 0.00 in0.0 mm 0.00 in0.0 mm
01:57 AM 57.1°F13.9°C 18.4°F-7.6°C 22% 2.6 mph N4.2 kmh N 4.0 mph6.4 kmh 30.18 in1022.0 mb 0.00 in0.0 mm 0.00 in0.0 mm 0.00 in0.0 mm
01:52 AM 57.4°F14.1°C 18.6°F-7.4°C 22% 3.0 mph 4.8 kmh 4.0 mph6.4 kmh 30.18 in1022.0 mb 0.00 in0.0 mm 0.00 in0.0 mm 0.00 in0.0 mm
01:47 AM 57.6°F14.2°C 18.7°F-7.4°C 22% 3.4 mph 5.5 kmh 3.4 mph5.5 kmh 30.18 in1022.0 mb 0.00 in0.0 mm 0.00 in0.0 mm 0.00 in0.0 mm
01:42 AM 58.1°F14.5°C 19.2°F-7.1°C 22% 0.8 mph NE1.3 kmh NE 2.2 mph3.5 kmh 30.18 in1022.0 mb 0.00 in0.0 mm 0.00 in0.0 mm 0.00 in0.0 mm
01:37 AM 58.5°F14.7°C 19.5°F-6.9°C 22% 1.7 mph NE2.7 kmh NE 5.4 mph8.7 kmh 30.18 in1022.0 mb 0.00 in0.0 mm 0.00 in0.0 mm 0.00 in0.0 mm
01:32 AM 58.5°F14.7°C 19.5°F-6.9°C 22% 2.7 mph NE4.3 kmh NE 5.4 mph8.7 kmh 30.19 in1022.4 mb 0.00 in0.0 mm 0.00 in0.0 mm 0.00 in0.0 mm
01:27 AM 58.5°F14.7°C 19.5°F-6.9°C 22% 2.5 mph 4.0 kmh 4.5 mph7.2 kmh 30.19 in1022.4 mb 0.00 in0.0 mm 0.00 in0.0 mm 0.00 in0.0 mm
01:22 AM 58.7°F14.8°C 19.6°F-6.9°C 22% 2.3 mph 3.7 kmh 4.5 mph7.2 kmh 30.18 in1022.0 mb 0.00 in0.0 mm 0.00 in0.0 mm 0.00 in0.0 mm
01:17 AM 58.7°F14.8°C 19.6°F-6.9°C 22% 3.0 mph 4.8 kmh 4.9 mph7.9 kmh 30.18 in1022.0 mb 0.00 in0.0 mm 0.00 in0.0 mm 0.00 in0.0 mm
01:12 AM 58.5°F14.7°C 20.4°F-6.4°C 23% 3.2 mph NNE5.1 kmh NNE 4.9 mph7.9 kmh 30.19 in1022.4 mb 0.00 in0.0 mm 0.00 in0.0 mm 0.00 in0.0 mm
01:07 AM 58.1°F14.5°C 19.2°F-7.1°C 22% 4.3 mph 6.9 kmh 4.7 mph7.6 kmh 30.19 in1022.4 mb 0.00 in0.0 mm 0.00 in0.0 mm 0.00 in0.0 mm
01:02 AM 58.3°F14.6°C 19.4°F-7.0°C 22% Calm Calm 3.4 mph5.5 kmh 30.19 in1022.4 mb 0.00 in0.0 mm 0.00 in0.0 mm 0.00 in0.0 mm
12:57 AM 58.7°F14.8°C 18.7°F-7.4°C 21% 2.8 mph NNE4.5 kmh NNE 3.4 mph5.5 kmh 30.19 in1022.4 mb 0.00 in0.0 mm 0.00 in0.0 mm 0.00 in0.0 mm
12:52 AM 59.0°F15.0°C 20.0°F-6.7°C 22% 1.8 mph 2.9 kmh 2.5 mph4.0 kmh 30.19 in1022.4 mb 0.00 in0.0 mm 0.00 in0.0 mm 0.00 in0.0 mm
12:47 AM 59.2°F15.1°C 20.1°F-6.6°C 22% 1.1 mph E1.8 kmh E 2.9 mph4.7 kmh 30.18 in1022.0 mb 0.00 in0.0 mm 0.00 in0.0 mm 0.00 in0.0 mm
12:42 AM 59.6°F15.3°C 19.4°F-7.0°C 21% 1.5 mph E2.4 kmh E 4.0 mph6.4 kmh 30.19 in1022.4 mb 0.00 in0.0 mm 0.00 in0.0 mm 0.00 in0.0 mm
12:37 AM 59.9°F15.5°C 19.8°F-6.8°C 21% 1.5 mph NNE2.4 kmh NNE 4.0 mph6.4 kmh 30.19 in1022.4 mb 0.00 in0.0 mm 0.00 in0.0 mm 0.00 in0.0 mm
12:32 AM 60.3°F15.7°C 20.1°F-6.6°C 21% 3.7 mph ENE6.0 kmh ENE 5.1 mph8.2 kmh 30.19 in1022.4 mb 0.00 in0.0 mm 0.00 in0.0 mm 0.00 in0.0 mm
12:27 AM 60.8°F16.0°C 20.6°F-6.3°C 21% 3.6 mph E5.8 kmh E 5.1 mph8.2 kmh 30.19 in1022.4 mb 0.00 in0.0 mm 0.00 in0.0 mm 0.00 in0.0 mm
12:22 AM 61.0°F16.1°C 20.7°F-6.3°C 21% 4.5 mph 7.2 kmh 4.7 mph7.6 kmh 30.18 in1022.0 mb 0.00 in0.0 mm 0.00 in0.0 mm 0.00 in0.0 mm
12:17 AM 61.2°F16.2°C 20.9°F-6.2°C 21% 2.8 mph NE4.5 kmh NE 4.0 mph6.4 kmh 30.19 in1022.4 mb 0.00 in0.0 mm 0.00 in0.0 mm 0.00 in0.0 mm
12:12 AM 61.9°F16.6°C 21.4°F-5.9°C 21% 3.9 mph E6.3 kmh E 4.0 mph6.4 kmh 30.19 in1022.4 mb 0.00 in0.0 mm 0.00 in0.0 mm 0.00 in0.0 mm
12:07 AM 62.3°F16.8°C 21.8°F-5.7°C 21% 2.0 mph NNW3.2 kmh NNW 2.9 mph4.7 kmh 30.19 in1022.4 mb 0.00 in0.0 mm 0.00 in0.0 mm 0.00 in0.0 mm
12:02 AM 62.1°F16.7°C 21.6°F-5.8°C 21% Calm Calm 2.5 mph4.0 kmh 30.19 in1022.4 mb 0.00 in0.0 mm 0.00 in0.0 mm 0.00 in0.0 mm